Time;durP1;ratioP1;P1;durP2;ratioP2;P2;SDS_P1;SDS_P2;PMS_P1;PMS_P2;Temp;Humidity;BMP_temperature;BMP_pressure;BME280_temperature;BME280_humidity;BME280_pressure;Samples;Min_cycle;Max_cycle;Signal;HPM_P1;HPM_P2
2021/03/09 00:00:33;;;;;;;50.27;26.53;;;3.70;96.60;;;;;;5045134;28;20139;-77
2021/03/09 00:02:59;;;;;;;59.53;33.30;;;3.70;96.60;;;;;;5041416;28;20523;-77
2021/03/09 00:05:26;;;;;;;54.67;28.67;;;3.60;96.40;;;;;;5039472;28;20044;-77
2021/03/09 00:07:52;;;;;;;63.03;34.00;;;3.70;96.50;;;;;;5045452;28;20051;-78
2021/03/09 00:10:18;;;;;;;65.27;34.53;;;3.70;96.50;;;;;;5026003;28;20403;-77
2021/03/09 00:12:46;;;;;;;59.30;30.10;;;3.70;96.50;;;;;;5026487;28;20136;-76
2021/03/09 00:15:13;;;;;;;62.90;32.03;;;3.60;96.60;;;;;;5044912;28;20123;-76
2021/03/09 00:17:39;;;;;;;71.53;35.17;;;3.60;96.60;;;;;;5035415;28;20048;-77
2021/03/09 00:20:06;;;;;;;64.50;32.90;;;3.60;96.90;;;;;;5059348;28;20579;-77
2021/03/09 00:22:32;;;;;;;63.70;32.53;;;3.60;96.70;;;;;;5031853;28;20053;-77
2021/03/09 00:24:59;;;;;;;61.20;31.23;;;3.60;96.70;;;;;;5049458;28;20047;-76
2021/03/09 00:27:27;;;;;;;59.27;30.10;;;3.60;96.70;;;;;;5063600;28;20044;-76
2021/03/09 00:29:53;;;;;;;55.77;30.57;;;3.60;96.80;;;;;;5062230;28;20506;-76
2021/03/09 00:32:19;;;;;;;54.83;30.47;;;3.70;96.80;;;;;;5067996;28;20049;-77
2021/03/09 00:34:45;;;;;;;58.83;30.17;;;3.60;96.80;;;;;;5063373;28;20044;-76
2021/03/09 00:37:11;;;;;;;67.13;34.87;;;3.60;96.80;;;;;;5064469;28;20449;-77
2021/03/09 00:39:36;;;;;;;64.17;31.80;;;3.60;96.80;;;;;;5015318;28;20116;-77
2021/03/09 00:42:03;;;;;;;47.03;24.30;;;3.70;96.90;;;;;;5033368;28;20036;-77
2021/03/09 00:44:28;;;;;;;66.53;30.53;;;3.60;96.80;;;;;;5062749;28;20265;-77
2021/03/09 00:46:54;;;;;;;65.27;30.67;;;3.60;96.80;;;;;;5042076;28;20426;-77
2021/03/09 00:49:20;;;;;;;60.90;30.80;;;3.60;96.80;;;;;;5062803;28;20043;-77
2021/03/09 00:51:46;;;;;;;69.67;34.13;;;3.60;96.80;;;;;;5033104;28;20036;-77
2021/03/09 00:54:12;;;;;;;54.80;27.80;;;3.60;96.80;;;;;;5040400;28;20144;-77
2021/03/09 00:56:38;;;;;;;70.20;33.13;;;3.70;96.80;;;;;;5065777;28;20036;-77
2021/03/09 00:59:04;;;;;;;58.97;30.20;;;3.60;96.80;;;;;;5030666;28;20032;-76
2021/03/09 01:01:30;;;;;;;65.97;32.43;;;3.50;96.80;;;;;;5027834;28;20055;-77
2021/03/09 01:03:56;;;;;;;63.83;31.10;;;3.60;96.80;;;;;;5050023;28;20094;-76
2021/03/09 01:06:22;;;;;;;60.40;30.93;;;3.50;96.80;;;;;;5044968;28;20056;-76
2021/03/09 01:08:48;;;;;;;67.33;33.13;;;3.60;96.90;;;;;;5030423;28;20391;-76
2021/03/09 01:11:14;;;;;;;60.87;31.70;;;3.60;96.90;;;;;;5046651;28;20056;-77
2021/03/09 01:13:40;;;;;;;64.70;30.40;;;3.50;96.90;;;;;;5065188;28;20036;-77
2021/03/09 01:16:06;;;;;;;65.60;31.77;;;3.60;96.90;;;;;;5047766;28;20052;-77
2021/03/09 01:18:32;;;;;;;55.63;28.67;;;3.60;96.90;;;;;;5026421;28;20083;-76
2021/03/09 01:20:58;;;;;;;67.87;29.97;;;3.70;96.90;;;;;;5062986;28;20247;-77
2021/03/09 01:23:24;;;;;;;64.00;30.13;;;3.70;96.90;;;;;;5063833;28;20118;-77
2021/03/09 01:25:50;;;;;;;71.17;32.93;;;3.60;96.80;;;;;;5058756;28;20558;-78
2021/03/09 01:28:16;;;;;;;65.80;29.67;;;3.70;96.90;;;;;;5030293;28;20044;-78
2021/03/09 01:30:42;;;;;;;58.87;28.73;;;3.60;97.00;;;;;;5028183;28;20028;-77
2021/03/09 01:33:09;;;;;;;54.97;27.33;;;3.70;97.00;;;;;;5061228;28;20044;-77
2021/03/09 01:35:34;;;;;;;63.43;29.50;;;3.60;97.00;;;;;;5063853;28;20036;-78
2021/03/09 01:38:00;;;;;;;57.50;28.23;;;3.70;97.10;;;;;;5047470;28;20036;-78
2021/03/09 01:40:27;;;;;;;54.23;28.40;;;3.70;97.00;;;;;;5032156;28;20051;-78
2021/03/09 01:42:53;;;;;;;59.67;27.90;;;3.70;97.10;;;;;;5029944;28;20094;-77
2021/03/09 01:45:21;;;;;;;42.10;22.73;;;3.70;97.10;;;;;;5067777;28;20487;-77
2021/03/09 01:47:56;;;;;;;51.43;27.23;;;3.70;97.10;;;;;;5048734;28;20067;-78
2021/03/09 01:50:24;;;;;;;55.10;28.00;;;3.70;97.00;;;;;;5031342;28;20102;-77
2021/03/09 01:52:50;;;;;;;49.00;24.47;;;3.70;97.10;;;;;;5049407;28;20054;-78
2021/03/09 01:55:16;;;;;;;44.40;21.47;;;3.70;97.10;;;;;;5042748;28;20058;-77
2021/03/09 01:57:43;;;;;;;51.83;25.30;;;3.70;97.10;;;;;;5046978;28;20483;-78
2021/03/09 02:00:10;;;;;;;49.83;25.47;;;3.70;97.10;;;;;;5048784;28;20521;-77
2021/03/09 02:02:36;;;;;;;53.07;24.17;;;3.70;97.10;;;;;;5047525;28;20051;-77
2021/03/09 02:05:06;;;;;;;47.30;23.67;;;3.70;97.20;;;;;;5049909;28;20033;-77
2021/03/09 02:07:35;;;;;;;49.97;25.98;;;3.70;97.20;;;;;;5063077;28;20048;-77
2021/03/09 02:10:04;;;;;;;47.27;24.27;;;3.70;97.20;;;;;;5049047;28;20033;-77
2021/03/09 02:12:38;;;;;;;50.40;25.17;;;3.70;97.20;;;;;;5062868;28;20406;-77
2021/03/09 02:15:08;;;;;;;48.60;25.43;;;3.70;97.20;;;;;;5065074;28;20032;-77
2021/03/09 02:17:42;;;;;;;51.77;25.27;;;3.80;97.30;;;;;;5062258;28;20053;-77
2021/03/09 02:20:25;;;;;;;53.90;25.63;;;3.70;97.30;;;;;;5044354;28;20045;-77
2021/03/09 02:23:00;;;;;;;48.70;24.43;;;3.80;97.30;;;;;;5026157;28;20037;-77
2021/03/09 02:25:38;;;;;;;36.53;19.80;;;3.80;97.30;;;;;;5041191;28;20111;-77
2021/03/09 02:28:38;;;;;;;49.77;24.33;;;3.80;97.30;;;;;;5041615;28;20055;-77
2021/03/09 02:31:06;;;;;;;47.03;23.70;;;3.80;97.30;;;;;;5042524;28;20084;-77
2021/03/09 02:33:49;;;;;;;50.43;23.97;;;3.80;97.30;;;;;;5020688;28;20037;-77
2021/03/09 02:36:19;;;;;;;43.13;23.30;;;3.80;97.40;;;;;;5032575;28;20137;-77
2021/03/09 02:38:56;;;;;;;48.47;25.52;;;3.70;97.40;;;;;;5040992;28;20041;-78
2021/03/09 02:41:23;;;;;;;50.70;25.00;;;3.80;97.50;;;;;;5047961;28;20051;-77
2021/03/09 02:43:53;;;;;;;41.13;20.70;;;3.80;97.40;;;;;;5044521;28;20041;-77
2021/03/09 02:46:21;;;;;;;46.60;24.20;;;3.80;97.30;;;;;;5009230;28;20320;-77
2021/03/09 02:48:47;;;;;;;52.13;24.57;;;3.80;97.30;;;;;;5025108;28;20480;-76
2021/03/09 02:51:14;;;;;;;58.23;25.63;;;3.80;97.40;;;;;;5027849;28;20144;-77
2021/03/09 02:53:56;;;;;;;46.37;24.20;;;3.80;97.40;;;;;;5025694;28;20033;-78
2021/03/09 02:56:23;;;;;;;41.20;21.43;;;3.90;97.50;;;;;;5045344;28;20041;-76
2021/03/09 02:58:54;;;;;;;45.93;23.33;;;3.90;97.50;;;;;;5027726;28;20040;-77
2021/03/09 03:01:23;;;;;;;42.80;21.83;;;3.90;97.40;;;;;;5005830;28;20585;-78
2021/03/09 03:03:51;;;;;;;53.53;26.20;;;3.80;97.50;;;;;;5040258;28;20115;-78
2021/03/09 03:06:17;;;;;;;47.57;22.13;;;3.90;97.50;;;;;;5045582;28;20057;-77
2021/03/09 03:08:44;;;;;;;44.30;23.10;;;3.90;97.50;;;;;;5024855;28;20047;-77
2021/03/09 03:11:11;;;;;;;46.40;23.00;;;3.90;97.60;;;;;;5012076;28;20095;-77
2021/03/09 03:13:40;;;;;;;56.63;24.60;;;3.90;97.60;;;;;;5007977;28;20140;-77
2021/03/09 03:16:07;;;;;;;50.77;23.93;;;3.90;97.70;;;;;;5026779;28;20041;-77
2021/03/09 03:18:40;;;;;;;48.20;23.10;;;3.90;97.70;;;;;;5017891;28;20036;-77
2021/03/09 03:21:10;;;;;;;49.93;24.47;;;3.80;97.70;;;;;;5041306;28;20052;-77
2021/03/09 03:23:38;;;;;;;46.97;22.60;;;3.90;97.70;;;;;;5063979;28;20128;-76
2021/03/09 03:26:06;;;;;;;54.63;24.33;;;3.90;97.70;;;;;;5041286;28;21165;-77
2021/03/09 03:28:35;;;;;;;49.43;22.80;;;3.90;97.70;;;;;;5061768;28;20372;-77
2021/03/09 03:31:03;;;;;;;53.27;24.73;;;3.90;97.70;;;;;;5048936;28;20245;-77
2021/03/09 03:33:30;;;;;;;44.83;22.07;;;4.00;97.70;;;;;;5062324;28;20048;-77
2021/03/09 03:36:03;;;;;;;49.40;23.73;;;3.90;97.70;;;;;;5022396;28;20036;-77
2021/03/09 03:38:36;;;;;;;50.30;23.27;;;4.00;97.70;;;;;;5060926;28;20055;-76
2021/03/09 03:41:03;;;;;;;45.47;23.97;;;4.00;97.80;;;;;;5062371;28;20032;-74
2021/03/09 03:43:33;;;;;;;56.42;23.83;;;4.00;97.80;;;;;;5044179;28;20036;-73
2021/03/09 03:45:59;;;;;;;47.57;23.30;;;4.00;97.80;;;;;;5064081;28;20040;-73
2021/03/09 03:48:32;;;;;;;56.80;26.03;;;4.00;97.80;;;;;;5033182;28;20265;-72
2021/03/09 03:50:59;;;;;;;45.17;24.63;;;4.00;97.80;;;;;;5059392;28;20033;-73
2021/03/09 03:53:45;;;;;;;53.67;25.47;;;4.00;97.80;;;;;;5039049;28;20040;-73
2021/03/09 03:56:14;;;;;;;59.97;26.60;;;4.00;97.80;;;;;;5058087;28;20037;-73
2021/03/09 03:58:44;;;;;;;53.13;24.30;;;4.00;97.80;;;;;;5031326;28;20037;-73
2021/03/09 04:01:11;;;;;;;56.92;26.42;;;4.00;98.10;;;;;;5039216;28;20072;-73
2021/03/09 04:03:38;;;;;;;60.20;27.20;;;4.00;97.90;;;;;;5061996;28;20063;-73
2021/03/09 04:06:06;;;;;;;57.97;25.73;;;4.00;97.90;;;;;;5041623;28;20063;-73
2021/03/09 04:08:36;;;;;;;62.77;28.57;;;4.00;97.90;;;;;;5063017;28;20033;-73
2021/03/09 04:11:09;;;;;;;64.50;28.67;;;4.10;97.90;;;;;;5059363;28;20336;-73
2021/03/09 04:13:37;;;;;;;64.70;28.73;;;4.10;98.00;;;;;;5039023;28;20039;-73
2021/03/09 04:16:04;;;;;;;54.23;26.80;;;4.00;97.90;;;;;;5063966;28;20116;-73
2021/03/09 04:18:31;;;;;;;65.30;29.30;;;4.00;98.00;;;;;;5046073;28;20136;-73
2021/03/09 04:20:58;;;;;;;52.40;27.23;;;4.00;98.00;;;;;;5038994;28;20036;-74
2021/03/09 04:23:26;;;;;;;71.63;28.83;;;4.10;97.90;;;;;;5059101;28;20036;-73
2021/03/09 04:25:53;;;;;;;63.80;28.77;;;4.10;98.00;;;;;;5052707;28;20032;-73
2021/03/09 04:28:23;;;;;;;70.30;29.93;;;4.00;98.00;;;;;;5059220;28;20132;-74
2021/03/09 04:30:49;;;;;;;79.07;31.60;;;4.00;98.00;;;;;;5044275;28;20029;-74
2021/03/09 04:33:17;;;;;;;66.20;29.67;;;4.10;98.10;;;;;;5059213;28;20124;-73
2021/03/09 04:35:43;;;;;;;78.67;31.50;;;4.10;98.10;;;;;;5060438;28;20036;-74
2021/03/09 04:38:09;;;;;;;70.63;30.73;;;4.00;98.10;;;;;;5038931;28;20075;-74
2021/03/09 04:40:36;;;;;;;81.53;32.07;;;4.10;98.40;;;;;;5026818;28;21173;-73
2021/03/09 04:43:03;;;;;;;76.37;30.97;;;4.10;98.10;;;;;;5061833;28;20029;-74
2021/03/09 04:45:30;;;;;;;67.10;30.17;;;4.10;98.10;;;;;;5060147;28;20052;-74
2021/03/09 04:48:03;;;;;;;92.77;34.40;;;4.10;98.10;;;;;;5058385;28;20384;-78
2021/03/09 04:50:29;;;;;;;78.83;32.00;;;4.10;98.10;;;;;;5047103;28;20250;-78
2021/03/09 04:52:56;;;;;;;74.13;30.87;;;4.10;98.20;;;;;;5030347;28;20403;-77
2021/03/09 04:55:24;;;;;;;90.63;33.83;;;4.20;98.20;;;;;;5064463;28;20048;-78
2021/03/09 04:57:50;;;;;;;92.50;33.67;;;4.20;98.30;;;;;;5064854;28;20403;-78
2021/03/09 05:00:24;;;;;;;93.83;32.87;;;4.10;98.30;;;;;;5045741;28;20044;-78
2021/03/09 05:02:51;;;;;;;76.83;33.40;;;4.30;98.30;;;;;;5041275;28;20048;-78
2021/03/09 05:05:23;;;;;;;298.67;48.87;;;4.30;98.30;;;;;;5051259;28;20116;-78
2021/03/09 05:07:49;;;;;;;78.27;33.43;;;4.30;98.40;;;;;;5046623;28;20505;-77
2021/03/09 05:10:16;;;;;;;85.43;33.63;;;4.30;98.30;;;;;;5037616;28;20040;-77
2021/03/09 05:12:44;;;;;;;97.93;35.30;;;4.20;98.30;;;;;;5042510;28;20579;-77
2021/03/09 05:15:11;;;;;;;125.97;36.97;;;4.30;98.40;;;;;;5027711;28;20047;-77
2021/03/09 05:17:37;;;;;;;82.87;33.70;;;4.30;98.40;;;;;;5044262;28;20073;-77
2021/03/09 05:20:06;;;;;;;105.70;34.77;;;4.30;98.50;;;;;;5067348;28;20064;-76
2021/03/09 05:22:34;;;;;;;109.63;36.33;;;4.30;98.50;;;;;;5060780;28;20445;-77
2021/03/09 05:25:01;;;;;;;139.03;39.77;;;4.30;98.60;;;;;;5055670;28;20068;-76
2021/03/09 05:27:27;;;;;;;130.27;38.93;;;4.40;98.60;;;;;;5042831;28;20048;-77
2021/03/09 05:29:54;;;;;;;170.27;41.53;;;4.40;98.60;;;;;;5062931;28;20562;-77
2021/03/09 05:32:20;;;;;;;108.33;36.27;;;4.40;98.70;;;;;;5046842;28;20483;-77
2021/03/09 05:34:46;;;;;;;121.13;37.87;;;4.40;98.70;;;;;;5049750;28;20044;-77
2021/03/09 05:37:13;;;;;;;193.20;47.97;;;4.40;98.70;;;;;;5062124;28;20064;-77
2021/03/09 05:39:40;;;;;;;192.00;46.27;;;4.50;98.70;;;;;;5067084;28;20041;-77
2021/03/09 05:42:07;;;;;;;100.37;39.27;;;4.50;98.70;;;;;;5065473;28;20033;-77
2021/03/09 05:44:34;;;;;;;199.00;47.90;;;4.50;98.70;;;;;;5038137;28;20376;-77
2021/03/09 05:47:02;;;;;;;138.73;43.50;;;4.50;98.70;;;;;;5047047;28;20116;-77
2021/03/09 05:49:28;;;;;;;172.00;46.73;;;4.50;98.80;;;;;;5058012;28;20036;-77
2021/03/09 05:51:54;;;;;;;189.13;47.60;;;4.50;98.80;;;;;;5047735;28;20043;-77
2021/03/09 05:54:22;;;;;;;207.17;51.73;;;4.50;98.80;;;;;;5041092;28;20581;-78
2021/03/09 05:56:48;;;;;;;212.77;51.70;;;4.50;98.80;;;;;;5067331;28;20043;-77
2021/03/09 05:59:14;;;;;;;236.93;52.47;;;4.60;98.90;;;;;;5052342;28;20071;-78
2021/03/09 06:01:40;;;;;;;235.07;52.23;;;4.60;99.10;;;;;;5063526;28;20036;-77
2021/03/09 06:04:06;;;;;;;264.70;52.53;;;4.60;99.00;;;;;;5050010;28;20079;-77
2021/03/09 06:06:34;;;;;;;219.47;51.00;;;4.60;98.90;;;;;;5008576;28;20453;-78
2021/03/09 06:09:01;;;;;;;197.27;49.33;;;4.60;99.00;;;;;;5047683;28;20033;-78
2021/03/09 06:11:27;;;;;;;291.47;52.27;;;4.70;99.00;;;;;;5049921;28;20166;-78
2021/03/09 06:13:56;;;;;;;163.17;47.93;;;4.70;99.40;;;;;;5047393;28;20442;-77
2021/03/09 06:16:22;;;;;;;269.17;51.20;;;4.70;99.10;;;;;;5048228;28;20487;-78
2021/03/09 06:18:55;;;;;;;277.10;52.67;;;4.70;99.10;;;;;;5050336;28;20053;-78
2021/03/09 06:21:22;;;;;;;364.60;57.43;;;4.70;99.10;;;;;;5027320;28;20055;-78
2021/03/09 06:23:49;;;;;;;330.37;54.87;;;4.70;99.10;;;;;;5027523;28;20395;-78
2021/03/09 06:26:33;;;;;;;252.20;50.90;;;4.80;99.20;;;;;;5056113;28;20040;-78
2021/03/09 06:29:15;;;;;;;414.43;60.43;;;4.90;99.20;;;;;;5040891;28;20550;-78
2021/03/09 06:31:51;;;;;;;387.73;57.27;;;4.80;99.20;;;;;;5061211;28;20050;-78
2021/03/09 06:34:21;;;;;;;405.80;56.80;;;4.80;99.20;;;;;;5061743;28;20044;-78
2021/03/09 06:37:16;;;;;;;559.45;65.93;;;4.90;99.30;;;;;;5044617;28;20124;-78
2021/03/09 06:39:51;;;;;;;506.50;60.43;;;4.80;99.30;;;;;;5063882;28;20036;-79
2021/03/09 06:42:36;;;;;;;432.43;61.37;;;4.90;99.30;;;;;;5064600;28;20051;-78
2021/03/09 06:45:20;;;;;;;702.13;70.40;;;4.90;99.30;;;;;;5064172;28;20127;-78
2021/03/09 06:47:47;;;;;;;656.10;69.57;;;4.90;99.30;;;;;;5062652;28;20302;-78
2021/03/09 06:50:34;;;;;;;699.67;72.60;;;4.90;99.30;;;;;;5032753;28;20511;-78
2021/03/09 06:53:04;;;;;;;553.30;62.87;;;5.00;99.40;;;;;;5064867;28;20043;-78
2021/03/09 06:55:32;;;;;;;454.13;58.47;;;5.00;99.40;;;;;;5031008;28;20518;-78
2021/03/09 06:58:13;;;;;;;501.97;61.10;;;5.00;99.50;;;;;;5027000;28;20040;-78
2021/03/09 07:00:43;;;;;;;391.53;53.70;;;5.00;99.50;;;;;;5044896;28;20037;-78
2021/03/09 07:03:31;;;;;;;344.27;52.33;;;5.00;99.50;;;;;;5064782;28;20047;-78
2021/03/09 07:05:59;;;;;;;325.63;50.83;;;5.10;99.60;;;;;;5042767;28;20803;-78
2021/03/09 07:08:26;;;;;;;264.57;48.20;;;5.10;99.60;;;;;;5059254;28;20075;-78
2021/03/09 07:10:52;;;;;;;256.07;46.40;;;5.10;99.60;;;;;;5059088;28;20036;-78
2021/03/09 07:13:23;;;;;;;305.03;49.80;;;5.10;99.70;;;;;;5042683;28;20412;-79
2021/03/09 07:15:49;;;;;;;;;;;5.10;99.60;;;;;;5058121;28;20043;-79
2021/03/09 07:18:20;;;;;;;304.43;46.07;;;5.10;99.70;;;;;;5041318;28;19924;-78
2021/03/09 07:20:47;;;;;;;256.37;45.53;;;5.10;99.70;;;;;;5058842;28;20501;-79
2021/03/09 07:23:18;;;;;;;198.57;40.97;;;5.20;99.70;;;;;;5058246;28;20044;-78
2021/03/09 07:25:46;;;;;;;;;;;5.20;99.90;;;;;;5060708;28;20102;-78
2021/03/09 07:28:13;;;;;;;298.63;43.13;;;5.20;99.80;;;;;;5075086;28;20343;-78
2021/03/09 07:30:42;;;;;;;321.57;43.97;;;5.20;99.80;;;;;;5062971;28;20506;-78
2021/03/09 07:33:12;;;;;;;330.33;44.67;;;5.30;99.80;;;;;;5044344;28;20147;-78
2021/03/09 07:35:38;;;;;;;271.27;40.47;;;5.30;99.70;;;;;;5062670;28;20115;-78
2021/03/09 07:38:06;;;;;;;279.13;39.70;;;5.40;99.80;;;;;;5063050;28;20086;-78
2021/03/09 07:40:36;;;;;;;214.10;37.83;;;5.40;99.80;;;;;;5043013;28;20044;-78
2021/03/09 07:43:02;;;;;;;281.33;38.53;;;5.50;99.90;;;;;;5024546;28;20167;-78
2021/03/09 07:45:32;;;;;;;200.30;32.90;;;5.60;99.80;;;;;;5063817;28;20051;-78
2021/03/09 07:48:20;;;;;;;225.67;31.97;;;5.60;99.80;;;;;;5058708;28;20044;-77
2021/03/09 07:50:48;;;;;;;193.37;31.43;;;5.60;99.70;;;;;;5048130;28;20166;-78
2021/03/09 07:53:19;;;;;;;234.97;34.47;;;5.70;99.80;;;;;;5057124;28;20044;-78
2021/03/09 07:56:03;;;;;;;310.48;37.55;;;5.70;99.70;;;;;;5047546;28;20093;-78
2021/03/09 07:58:29;;;;;;;266.73;42.80;;;5.70;99.80;;;;;;5060811;28;20453;-78
2021/03/09 08:01:05;;;;;;;254.83;36.10;;;5.70;99.70;;;;;;5031150;28;20051;-78
2021/03/09 08:04:06;;;;;;;231.63;33.07;;;5.70;99.80;;;;;;5053615;28;20116;-78
2021/03/09 08:06:44;;;;;;;179.20;27.47;;;5.70;99.80;;;;;;5040491;28;20057;-78
2021/03/09 08:09:38;;;;;;;180.57;29.30;;;5.80;99.80;;;;;;5044034;28;20302;-77
2021/03/09 08:12:23;;;;;;;183.43;29.50;;;5.90;99.70;;;;;;5061391;28;20052;-78
2021/03/09 08:15:11;;;;;;;162.47;27.70;;;5.90;99.60;;;;;;5057950;28;20094;-77
2021/03/09 08:17:37;;;;;;;190.00;29.10;;;5.80;99.60;;;;;;5044910;28;20507;-78
2021/03/09 08:20:04;;;;;;;113.20;24.20;;;5.80;99.60;;;;;;5031711;28;20036;-78
2021/03/09 08:22:38;;;;;;;120.83;24.27;;;5.90;99.60;;;;;;5034874;28;20289;-78
2021/03/09 08:25:05;;;;;;;134.07;23.63;;;5.90;99.60;;;;;;5046572;28;20044;-77
2021/03/09 08:27:38;;;;;;;153.30;25.07;;;5.90;99.60;;;;;;5046147;28;20478;-73
2021/03/09 08:30:07;;;;;;;150.83;24.53;;;5.90;99.60;;;;;;5060204;28;20040;-73
2021/03/09 08:32:38;;;;;;;99.93;22.97;;;5.90;99.60;;;;;;5065634;28;20040;-74
2021/03/09 08:35:13;;;;;;;117.10;24.60;;;5.90;99.70;;;;;;5045196;28;20119;-73
2021/03/09 08:37:41;;;;;;;121.90;26.30;;;5.90;99.60;;;;;;5056067;28;20033;-74
2021/03/09 08:40:13;;;;;;;117.43;26.90;;;6.00;99.60;;;;;;5043891;28;20487;-74
2021/03/09 08:43:01;;;;;;;108.37;23.97;;;6.00;99.70;;;;;;5062486;28;20538;-74
2021/03/09 08:46:03;;;;;;;107.80;21.97;;;6.00;99.60;;;;;;5065013;28;20041;-73
2021/03/09 08:48:42;;;;;;;117.13;22.83;;;6.00;99.60;;;;;;5054925;28;20512;-73
2021/03/09 08:51:08;;;;;;;90.30;20.33;;;6.00;99.70;;;;;;5065135;28;20060;-73
2021/03/09 08:53:34;;;;;;;84.07;20.57;;;6.00;99.50;;;;;;5052616;28;20459;-74
2021/03/09 08:56:06;;;;;;;97.73;21.63;;;6.10;99.50;;;;;;5043251;28;20248;-74
2021/03/09 08:58:39;;;;;;;93.73;22.87;;;6.10;99.40;;;;;;5047128;28;20045;-73
2021/03/09 09:01:06;;;;;;;91.90;24.70;;;6.10;99.40;;;;;;5042333;28;20531;-73
2021/03/09 09:03:40;;;;;;;90.63;23.33;;;6.10;99.20;;;;;;5030657;28;20261;-74
2021/03/09 09:06:07;;;;;;;112.77;26.30;;;6.10;99.20;;;;;;5032192;28;20040;-74
2021/03/09 09:08:33;;;;;;;127.53;28.87;;;6.10;99.30;;;;;;5064524;28;20565;-73
2021/03/09 09:11:00;;;;;;;108.80;30.63;;;6.10;99.30;;;;;;5063656;28;20514;-73
2021/03/09 09:13:31;;;;;;;112.53;31.13;;;6.10;99.30;;;;;;5064236;28;20045;-73
2021/03/09 09:15:58;;;;;;;118.87;33.10;;;6.10;99.20;;;;;;5057910;28;20113;-74
2021/03/09 09:18:24;;;;;;;139.70;35.83;;;6.10;99.20;;;;;;5055859;28;20059;-74
2021/03/09 09:20:52;;;;;;;101.83;35.40;;;6.10;99.20;;;;;;5050507;28;20111;-74
2021/03/09 09:23:27;;;;;;;105.30;34.90;;;6.20;99.00;;;;;;5048579;28;20042;-74
2021/03/09 09:25:58;;;;;;;103.60;37.70;;;6.10;98.90;;;;;;5040778;28;20128;-74
2021/03/09 09:28:26;;;;;;;97.93;36.80;;;6.10;99.00;;;;;;5046283;28;20114;-74
2021/03/09 09:30:58;;;;;;;85.00;36.03;;;6.20;98.60;;;;;;5046487;28;20113;-74
2021/03/09 09:33:25;;;;;;;90.50;35.53;;;6.20;98.70;;;;;;5064510;28;20036;-74
2021/03/09 09:35:51;;;;;;;109.93;40.10;;;6.30;98.60;;;;;;5066469;28;20037;-74
2021/03/09 09:38:21;;;;;;;107.47;38.80;;;6.30;98.70;;;;;;5066816;28;20392;-74
2021/03/09 09:40:59;;;;;;;102.32;37.65;;;6.20;98.60;;;;;;5063018;28;20095;-74
2021/03/09 09:43:28;;;;;;;77.63;33.10;;;6.20;98.60;;;;;;5067499;28;20048;-74
2021/03/09 09:46:03;;;;;;;96.60;37.93;;;6.20;98.70;;;;;;5055242;28;20430;-74
2021/03/09 09:48:36;;;;;;;89.33;36.70;;;6.20;98.80;;;;;;5060389;28;20566;-74
2021/03/09 09:51:16;;;;;;;91.13;37.03;;;6.20;98.80;;;;;;5049407;28;20040;-74
2021/03/09 09:53:44;;;;;;;81.40;36.67;;;6.20;98.90;;;;;;5069321;28;20391;-74
2021/03/09 09:56:24;;;;;;;104.97;39.87;;;6.20;98.90;;;;;;5059599;28;20935;-74
2021/03/09 09:58:53;;;;;;;82.80;35.90;;;6.20;98.90;;;;;;5060537;28;20329;-74
2021/03/09 10:01:32;;;;;;;77.37;35.20;;;6.20;98.90;;;;;;5064195;28;20037;-74
2021/03/09 10:04:00;;;;;;;84.37;37.10;;;6.20;99.00;;;;;;5063910;28;20720;-74
2021/03/09 10:06:28;;;;;;;77.70;35.63;;;6.20;99.00;;;;;;5061955;28;20036;-74
2021/03/09 10:08:55;;;;;;;78.90;36.67;;;6.20;99.00;;;;;;5058254;28;20033;-74
2021/03/09 10:11:24;;;;;;;93.60;38.87;;;6.20;99.00;;;;;;5046664;28;20048;-74
2021/03/09 10:14:03;;;;;;;90.93;39.67;;;6.20;99.00;;;;;;5023475;28;20376;-72
2021/03/09 10:16:40;;;;;;;74.23;36.47;;;6.20;98.90;;;;;;5040779;28;20105;-74
2021/03/09 10:19:09;;;;;;;91.73;40.43;;;6.20;98.90;;;;;;5062140;28;20052;-74
2021/03/09 10:21:36;;;;;;;99.13;38.07;;;6.20;98.80;;;;;;5046982;28;20064;-74
2021/03/09 10:24:03;;;;;;;77.33;36.17;;;6.10;98.80;;;;;;5033305;28;20064;-74
2021/03/09 10:26:32;;;;;;;84.20;35.73;;;6.10;98.80;;;;;;5063903;28;20495;-74
2021/03/09 10:29:04;;;;;;;79.50;36.10;;;6.10;98.80;;;;;;5025985;28;20052;-74
2021/03/09 10:31:50;;;;;;;71.03;32.97;;;6.20;98.90;;;;;;5072692;28;20459;-74
2021/03/09 10:34:33;;;;;;;73.57;35.03;;;6.20;99.10;;;;;;5044742;28;20044;-73
2021/03/09 10:37:02;;;;;;;77.67;36.23;;;6.20;98.80;;;;;;5061679;28;20040;-74
2021/03/09 10:39:32;;;;;;;65.20;34.37;;;6.20;98.80;;;;;;5041793;28;20051;-74
2021/03/09 10:42:24;;;;;;;80.50;35.60;;;6.30;98.70;;;;;;5041774;28;20122;-74
2021/03/09 10:44:49;;;;;;;74.07;37.00;;;6.30;98.50;;;;;;5059830;28;20041;-73
2021/03/09 10:47:15;;;;;;;76.30;34.87;;;6.40;98.30;;;;;;5043936;28;20048;-73
2021/03/09 10:49:41;;;;;;;78.90;37.73;;;6.30;98.30;;;;;;5039260;28;20453;-74
2021/03/09 10:52:08;;;;;;;79.60;37.00;;;6.30;98.40;;;;;;5029768;28;20051;-75
2021/03/09 10:54:39;;;;;;;89.03;40.00;;;6.30;98.40;;;;;;5027185;28;20106;-74
2021/03/09 10:57:06;;;;;;;81.28;38.65;;;6.20;98.40;;;;;;5046999;28;20437;-74
2021/03/09 10:59:32;;;;;;;83.47;37.67;;;6.20;98.40;;;;;;5060915;28;20386;-74
2021/03/09 11:01:58;;;;;;;75.67;37.20;;;6.20;98.40;;;;;;5063038;28;20044;-74
2021/03/09 11:04:24;;;;;;;80.33;37.20;;;6.20;98.40;;;;;;5063021;28;20046;-74
2021/03/09 11:06:50;;;;;;;60.23;33.80;;;6.30;98.30;;;;;;5064199;28;20040;-74
2021/03/09 11:09:17;;;;;;;55.67;31.67;;;6.30;98.10;;;;;;5038289;28;20568;-74
2021/03/09 11:11:43;;;;;;;57.93;30.73;;;6.20;98.00;;;;;;5042336;28;20069;-75
2021/03/09 11:14:12;;;;;;;76.07;34.90;;;6.20;98.00;;;;;;5026276;28;20059;-75
2021/03/09 11:16:38;;;;;;;53.03;30.07;;;6.20;98.10;;;;;;5024721;28;20064;-74
2021/03/09 11:19:04;;;;;;;54.53;30.30;;;6.20;98.10;;;;;;5039227;28;20083;-74
2021/03/09 11:21:30;;;;;;;61.47;32.57;;;6.10;98.10;;;;;;5042654;28;20052;-75
2021/03/09 11:23:56;;;;;;;64.00;32.93;;;6.10;98.10;;;;;;5021757;28;20055;-75
2021/03/09 11:26:24;;;;;;;58.67;31.30;;;6.10;97.80;;;;;;5023371;28;20036;-75
2021/03/09 11:28:59;;;;;;;55.47;30.03;;;6.10;97.80;;;;;;5059707;28;20486;-74
2021/03/09 11:31:25;;;;;;;63.43;32.33;;;6.10;97.80;;;;;;5059719;28;20064;-75
2021/03/09 11:33:51;;;;;;;57.23;29.63;;;6.00;97.80;;;;;;5036523;28;20041;-75
2021/03/09 11:36:17;;;;;;;51.93;27.77;;;6.10;98.00;;;;;;5058481;28;20102;-74
2021/03/09 11:38:44;;;;;;;47.33;27.00;;;6.10;97.90;;;;;;5027397;28;20555;-75
2021/03/09 11:41:12;;;;;;;45.83;25.63;;;6.10;97.90;;;;;;5037016;28;20419;-74
2021/03/09 11:43:38;;;;;;;46.07;26.13;;;6.20;98.00;;;;;;5060090;28;20036;-74
2021/03/09 11:46:04;;;;;;;43.40;26.80;;;6.10;97.90;;;;;;5062421;28;20071;-74
2021/03/09 11:48:30;;;;;;;44.07;26.73;;;6.10;97.70;;;;;;5058227;28;20064;-74
2021/03/09 11:50:57;;;;;;;47.30;27.20;;;6.00;97.50;;;;;;5041508;28;20429;-74
2021/03/09 11:53:24;;;;;;;43.37;26.43;;;5.90;97.60;;;;;;5042364;28;20068;-74
2021/03/09 11:55:51;;;;;;;43.50;26.50;;;5.90;97.60;;;;;;5060063;28;20037;-75
2021/03/09 11:58:16;;;;;;;40.37;26.27;;;6.00;97.60;;;;;;5060849;28;20068;-74
2021/03/09 12:00:42;;;;;;;44.53;26.77;;;5.90;97.60;;;;;;5062211;28;20064;-77
2021/03/09 12:03:08;;;;;;;44.03;26.33;;;6.00;97.70;;;;;;5022957;28;20321;-77
2021/03/09 12:05:34;;;;;;;43.53;26.17;;;5.90;97.70;;;;;;5035383;28;20048;-77
2021/03/09 12:08:01;;;;;;;40.33;24.93;;;5.90;97.60;;;;;;5057313;28;20487;-76
2021/03/09 12:10:28;;;;;;;38.57;24.47;;;5.90;97.50;;;;;;5063396;28;20037;-77
2021/03/09 12:12:54;;;;;;;38.10;24.37;;;5.90;97.40;;;;;;5042252;28;20045;-75
2021/03/09 12:15:22;;;;;;;39.40;26.17;;;5.90;97.10;;;;;;5042277;28;20113;-76
2021/03/09 12:17:48;;;;;;;40.23;25.97;;;5.90;97.20;;;;;;5063150;28;20482;-76
2021/03/09 12:20:15;;;;;;;38.53;24.53;;;5.90;97.20;;;;;;5059468;28;20596;-76
2021/03/09 12:22:43;;;;;;;35.87;24.23;;;5.90;97.20;;;;;;5046315;28;20068;-74
2021/03/09 12:25:09;;;;;;;39.67;26.53;;;6.00;97.30;;;;;;5034787;28;20044;-74
2021/03/09 12:27:36;;;;;;;35.90;24.40;;;6.00;97.30;;;;;;5064539;28;20052;-74
2021/03/09 12:30:05;;;;;;;36.63;24.83;;;6.10;97.30;;;;;;5059245;28;21141;-74
2021/03/09 12:32:31;;;;;;;36.70;23.70;;;6.10;97.10;;;;;;5059485;28;20044;-74
2021/03/09 12:34:56;;;;;;;37.53;23.13;;;6.00;97.00;;;;;;5061115;28;20048;-74
2021/03/09 12:37:22;;;;;;;38.33;25.00;;;6.00;97.10;;;;;;5043223;28;20040;-74
2021/03/09 12:39:49;;;;;;;40.67;25.90;;;6.10;97.00;;;;;;5060262;28;20511;-74
2021/03/09 12:42:15;;;;;;;39.83;25.80;;;6.10;97.10;;;;;;5024160;28;20087;-74
2021/03/09 12:44:41;;;;;;;42.90;26.37;;;6.10;96.80;;;;;;5058753;28;20072;-74